createdAt,value
2023-03-03T00:05:07.953Z,100956.61
2023-03-03T00:10:43.745Z,100957.54
2023-03-03T00:15:40.729Z,100954.67
2023-03-03T00:20:38.051Z,100952.06
2023-03-03T00:25:34.745Z,100947.70
2023-03-03T00:30:29.239Z,100942.33
2023-03-03T00:35:30.504Z,100932.84
2023-03-03T00:40:27.690Z,100919.91
2023-03-03T00:45:41.034Z,100909.69
2023-03-03T00:50:36.206Z,100905.34
2023-03-03T00:55:29.813Z,100906.42
2023-03-03T01:00:22.605Z,100896.06
2023-03-03T01:05:18.086Z,100893.34
2023-03-03T01:10:12.196Z,100885.34
2023-03-03T01:15:05.651Z,100879.02
2023-03-03T01:19:58.403Z,100877.80
2023-03-03T01:24:51.160Z,100865.34
2023-03-03T01:29:44.161Z,100860.26
2023-03-03T01:34:36.897Z,100853.41
2023-03-03T01:39:29.843Z,100842.36
2023-03-03T01:44:22.531Z,100839.70
2023-03-03T01:49:37.810Z,100839.53
2023-03-03T01:54:56.579Z,100835.35
2023-03-03T01:59:52.097Z,100827.55
2023-03-03T02:04:44.775Z,100830.80
2023-03-03T02:10:01.097Z,100825.24
2023-03-03T02:14:56.170Z,100830.38
2023-03-03T02:19:59.422Z,100833.65
2023-03-03T02:25:00.097Z,100836.75
2023-03-03T02:29:52.961Z,100823.09
2023-03-03T02:34:52.142Z,100827.05
2023-03-03T02:39:45.523Z,100823.01
2023-03-03T02:44:38.882Z,100819.31
2023-03-03T02:49:35.395Z,100815.86
2023-03-03T02:54:31.332Z,100808.91
2023-03-03T02:59:24.621Z,100807.77
2023-03-03T03:04:21.704Z,100806.51
2023-03-03T03:09:17.108Z,100808.08
2023-03-03T03:14:12.035Z,100808.52
2023-03-03T03:19:06.081Z,100797.93
2023-03-03T03:24:00.181Z,100795.30
2023-03-03T03:28:54.185Z,100791.46
2023-03-03T03:33:47.467Z,100798.14
2023-03-03T03:38:41.070Z,100791.98
2023-03-03T03:43:34.754Z,100796.79
2023-03-03T03:48:29.252Z,100795.45
2023-03-03T03:53:22.539Z,100797.11
2023-03-03T03:58:17.519Z,100799.30
2023-03-03T04:03:14.593Z,100791.90
2023-03-03T04:08:09.028Z,100777.63
2023-03-03T04:13:02.588Z,100767.88
2023-03-03T04:17:55.704Z,100770.77
2023-03-03T04:22:48.412Z,100772.52
2023-03-03T04:27:41.446Z,100766.94
2023-03-03T04:32:35.444Z,100762.61
2023-03-03T04:37:29.504Z,100755.36
2023-03-03T04:42:22.426Z,100747.83
2023-03-03T04:47:15.455Z,100743.89
2023-03-03T04:52:08.884Z,100742.14
2023-03-03T04:57:03.480Z,100745.02
2023-03-03T05:01:56.522Z,100736.97
2023-03-03T05:06:49.389Z,100734.46
2023-03-03T05:11:44.425Z,100732.21
2023-03-03T05:16:37.062Z,100728.45
2023-03-03T05:21:29.818Z,100726.80
2023-03-03T05:26:22.522Z,100729.75
2023-03-03T05:31:57.090Z,100729.56
2023-03-03T05:37:09.874Z,100731.54
2023-03-03T05:42:19.397Z,100726.84
2023-03-03T05:47:31.720Z,100733.69
2023-03-03T05:52:53.750Z,100728.10
2023-03-03T05:57:53.985Z,100729.17
2023-03-03T06:02:47.151Z,100727.49
2023-03-03T06:07:40.182Z,100715.60
2023-03-03T06:12:32.925Z,100709.93
2023-03-03T06:17:25.575Z,100709.21
2023-03-03T06:22:20.929Z,100709.95
2023-03-03T06:27:13.576Z,100718.25
2023-03-03T06:32:06.924Z,100719.88
2023-03-03T06:36:59.827Z,100725.34
2023-03-03T06:41:52.445Z,100726.59
2023-03-03T06:46:45.187Z,100720.04
2023-03-03T06:51:40.456Z,100712.45
2023-03-03T06:56:54.561Z,100713.95
2023-03-03T07:07:32.894Z,100722.68
2023-03-03T07:12:33.714Z,100725.98
2023-03-03T07:17:26.879Z,100724.92
2023-03-03T07:22:26.388Z,100722.60
2023-03-03T07:27:28.164Z,100723.41
2023-03-03T07:32:26.686Z,100718.56
2023-03-03T07:37:36.058Z,100714.66
2023-03-03T07:42:44.378Z,100715.26
2023-03-03T07:47:51.672Z,100728.43
2023-03-03T07:53:03.255Z,100735.39
2023-03-03T07:58:06.730Z,100743.16
2023-03-03T08:04:01.893Z,100735.27
2023-03-03T08:09:02.511Z,100741.23
2023-03-03T08:13:55.809Z,100748.75
2023-03-03T08:18:50.997Z,100749.44
2023-03-03T08:24:00.176Z,100750.70
2023-03-03T08:30:03.767Z,100754.73
2023-03-03T08:35:15.299Z,100757.08
2023-03-03T08:40:28.336Z,100753.42
2023-03-03T08:45:21.759Z,100757.95
2023-03-03T08:50:35.053Z,100758.84
2023-03-03T08:55:27.982Z,100760.27
2023-03-03T09:00:23.642Z,100778.95
2023-03-03T09:05:25.472Z,100773.92
2023-03-03T09:10:39.424Z,100779.45
2023-03-03T09:15:51.221Z,100773.60
2023-03-03T09:20:58.587Z,100773.39
2023-03-03T09:25:56.212Z,100762.38
2023-03-03T09:31:07.119Z,100752.14
2023-03-03T09:36:29.544Z,100739.92
2023-03-03T09:41:28.636Z,100732.33
2023-03-03T09:46:52.837Z,100733.21
2023-03-03T09:51:45.637Z,100720.07
2023-03-03T09:56:51.269Z,100719.31
2023-03-03T10:02:22.980Z,100721.67
2023-03-03T10:07:37.844Z,100714.88
2023-03-03T10:12:36.890Z,100712.16
2023-03-03T10:17:47.124Z,100706.64
2023-03-03T10:23:08.991Z,100718.94
2023-03-03T10:28:27.179Z,100729.86
2023-03-03T10:33:26.200Z,100732.45
2023-03-03T10:39:01.829Z,100729.27
2023-03-03T10:44:00.932Z,100731.19
2023-03-03T10:48:56.753Z,100729.05
2023-03-03T10:54:23.936Z,100732.63
2023-03-03T10:59:45.282Z,100731.42
2023-03-03T11:04:50.311Z,100726.30
2023-03-03T11:09:58.615Z,100720.98
2023-03-03T11:15:10.993Z,100724.34
2023-03-03T11:20:34.591Z,100728.36
2023-03-03T11:25:56.726Z,100731.79
2023-03-03T11:31:17.197Z,100727.24
2023-03-03T11:36:19.706Z,100727.48
2023-03-03T11:41:51.040Z,100713.13
2023-03-03T11:46:54.415Z,100714.55
2023-03-03T11:52:06.260Z,100711.32
2023-03-03T11:57:44.017Z,100708.95
2023-03-03T12:03:01.908Z,100710.41
2023-03-03T12:08:20.756Z,100710.86
2023-03-03T12:13:29.897Z,100713.30
2023-03-03T12:19:29.938Z,100714.19
2023-03-03T12:24:44.395Z,100711.08
2023-03-03T12:29:48.047Z,100712.54
2023-03-03T12:35:09.000Z,100715.38
2023-03-03T12:40:33.250Z,100711.41
2023-03-03T12:45:53.781Z,100713.39
2023-03-03T12:51:24.632Z,100709.79
2023-03-03T12:56:36.847Z,100710.49
2023-03-03T13:01:46.105Z,100713.73
2023-03-03T13:07:02.178Z,100712.27
2023-03-03T13:11:55.098Z,100711.75
2023-03-03T13:17:03.233Z,100706.66
2023-03-03T13:22:11.032Z,100704.33
2023-03-03T13:27:16.141Z,100702.57
2023-03-03T13:32:25.739Z,100701.69
2023-03-03T13:37:36.768Z,100699.40
2023-03-03T13:42:34.704Z,100703.32
2023-03-03T13:47:49.323Z,100697.80
2023-03-03T13:53:15.262Z,100688.70
2023-03-03T13:58:45.291Z,100686.35
2023-03-03T14:03:59.104Z,100684.23
2023-03-03T14:09:16.723Z,100678.34
2023-03-03T14:14:31.079Z,100676.02
2023-03-03T14:19:36.563Z,100678.81
2023-03-03T14:24:29.438Z,100672.55
2023-03-03T14:29:29.734Z,100676.54
2023-03-03T14:34:35.200Z,100678.77
2023-03-03T14:39:35.157Z,100680.86
2023-03-03T14:44:36.812Z,100680.59
2023-03-03T14:49:34.756Z,100685.20
2023-03-03T14:54:31.448Z,100678.66
2023-03-03T14:59:27.127Z,100673.29
2023-03-03T15:04:31.041Z,100674.10
2023-03-03T15:09:43.293Z,100671.05
2023-03-03T15:14:46.754Z,100675.24
2023-03-03T15:19:49.761Z,100679.29
2023-03-03T15:24:51.652Z,100679.06
2023-03-03T15:30:14.003Z,100673.18
2023-03-03T15:35:24.647Z,100679.16
2023-03-03T15:40:36.453Z,100687.32
2023-03-03T15:45:35.469Z,100684.20
2023-03-03T15:51:00.432Z,100674.53
2023-03-03T15:56:13.469Z,100662.72
2023-03-03T16:01:10.702Z,100662.45
2023-03-03T16:06:17.904Z,100662.86
2023-03-03T16:11:31.609Z,100663.96
2023-03-03T16:16:31.053Z,100662.46
2023-03-03T16:21:45.238Z,100666.17
2023-03-03T16:26:47.588Z,100667.44
2023-03-03T16:32:23.619Z,100662.06
2023-03-03T16:37:28.244Z,100661.11
2023-03-03T16:42:34.466Z,100655.96
2023-03-03T16:47:39.682Z,100654.41
2023-03-03T16:52:44.493Z,100659.80
2023-03-03T16:57:59.452Z,100663.81
2023-03-03T17:03:10.670Z,100649.98
2023-03-03T17:08:13.347Z,100650.73
2023-03-03T17:13:21.459Z,100649.60
2023-03-03T17:18:41.313Z,100653.16
2023-03-03T17:23:51.266Z,100660.40
2023-03-03T17:29:01.809Z,100657.36
2023-03-03T17:34:06.937Z,100654.42
2023-03-03T17:39:27.668Z,100653.39
2023-03-03T17:44:42.127Z,100657.77
2023-03-03T17:50:07.009Z,100655.95
2023-03-03T17:55:31.442Z,100644.87
2023-03-03T18:00:48.975Z,100639.70
2023-03-03T18:05:50.829Z,100639.63
2023-03-03T18:11:02.259Z,100644.67
2023-03-03T18:16:20.050Z,100640.79
2023-03-03T18:21:19.168Z,100636.94
2023-03-03T18:26:39.432Z,100634.23
2023-03-03T18:31:44.909Z,100633.69
2023-03-03T18:36:52.098Z,100634.56
2023-03-03T18:42:32.541Z,100623.36
2023-03-03T18:48:02.470Z,100626.77
2023-03-03T18:53:15.889Z,100628.80
2023-03-03T18:58:14.719Z,100619.85
2023-03-03T19:03:28.841Z,100617.77
2023-03-03T19:08:54.432Z,100610.56
2023-03-03T19:13:50.123Z,100605.34
2023-03-03T19:18:43.200Z,100601.55
2023-03-03T19:24:00.224Z,100605.09
2023-03-03T19:29:21.117Z,100593.31
2023-03-03T19:34:23.537Z,100582.95
2023-03-03T19:39:50.526Z,100577.52
2023-03-03T19:45:17.707Z,100580.21
2023-03-03T19:50:34.621Z,100588.95
2023-03-03T19:55:36.548Z,100583.83
2023-03-03T20:00:36.465Z,100568.67
2023-03-03T20:05:47.886Z,100556.18
2023-03-03T20:11:05.644Z,100548.73
2023-03-03T20:16:23.222Z,100539.55
2023-03-03T20:21:20.899Z,100536.99
2023-03-03T20:26:41.257Z,100535.96
2023-03-03T20:31:46.060Z,100533.88
2023-03-03T20:36:49.299Z,100514.29
2023-03-03T20:42:06.779Z,100507.37
2023-03-03T20:47:10.867Z,100506.69
2023-03-03T20:52:15.619Z,100512.06
2023-03-03T20:57:14.155Z,100511.20
2023-03-03T21:02:09.982Z,100500.27
2023-03-03T21:07:04.805Z,100496.91
2023-03-03T21:11:58.974Z,100490.27
2023-03-03T21:16:53.987Z,100483.16
2023-03-03T21:21:50.611Z,100476.64
2023-03-03T21:26:53.713Z,100470.64
2023-03-03T21:31:55.313Z,100462.16
2023-03-03T21:36:50.419Z,100462.92
2023-03-03T21:42:14.595Z,100454.52
2023-03-03T21:47:12.991Z,100443.52
2023-03-03T21:52:06.206Z,100437.40
2023-03-03T21:56:58.923Z,100428.98
2023-03-03T22:01:51.591Z,100421.77
2023-03-03T22:06:45.619Z,100412.66
2023-03-03T22:11:39.656Z,100406.98
2023-03-03T22:16:32.632Z,100400.39
2023-03-03T22:21:25.402Z,100392.73
2023-03-03T22:26:18.782Z,100389.12
2023-03-03T22:31:11.467Z,100385.02
2023-03-03T22:36:04.695Z,100377.61
2023-03-03T22:40:57.375Z,100373.65
2023-03-03T22:45:50.641Z,100363.42
2023-03-03T22:50:45.254Z,100335.70
2023-03-03T22:55:38.222Z,100326.12
2023-03-03T23:00:31.673Z,100320.14
2023-03-03T23:05:24.553Z,100320.73
2023-03-03T23:10:17.593Z,100309.77
2023-03-03T23:15:13.358Z,100290.73
2023-03-03T23:20:07.132Z,100287.94
2023-03-03T23:24:59.826Z,100288.11
2023-03-03T23:29:52.848Z,100281.06
2023-03-03T23:34:45.530Z,100275.17
2023-03-03T23:39:38.181Z,100268.59
2023-03-03T23:44:31.487Z,100271.84
2023-03-03T23:49:24.475Z,100261.91
2023-03-03T23:54:18.193Z,100250.55
2023-03-03T23:59:10.905Z,100240.67
